sensor_id;sensor_type;location;lat;lon;timestamp;P1;durP1;ratioP1;P2;durP2;ratioP2
8913;SDS011;4492;48.736;9.092;2022-10-15T00:00:33;1.57;;;0.50;;
8913;SDS011;4492;48.736;9.092;2022-10-15T00:02:58;0.50;;;0.40;;
8913;SDS011;4492;48.736;9.092;2022-10-15T00:05:24;5.23;;;0.40;;
8913;SDS011;4492;48.736;9.092;2022-10-15T00:07:50;0.53;;;0.53;;
8913;SDS011;4492;48.736;9.092;2022-10-15T00:10:16;1.13;;;0.40;;
8913;SDS011;4492;48.736;9.092;2022-10-15T00:12:41;0.30;;;0.30;;
8913;SDS011;4492;48.736;9.092;2022-10-15T00:15:07;1.03;;;0.30;;
8913;SDS011;4492;48.736;9.092;2022-10-15T00:17:34;1.23;;;0.40;;
8913;SDS011;4492;48.736;9.092;2022-10-15T00:20:01;0.73;;;0.40;;
8913;SDS011;4492;48.736;9.092;2022-10-15T00:22:32;1.43;;;0.40;;
8913;SDS011;4492;48.736;9.092;2022-10-15T00:24:58;2.40;;;0.50;;
8913;SDS011;4492;48.736;9.092;2022-10-15T00:27:23;0.40;;;0.40;;
8913;SDS011;4492;48.736;9.092;2022-10-15T00:29:49;0.73;;;0.40;;
8913;SDS011;4492;48.736;9.092;2022-10-15T00:32:14;1.07;;;0.30;;
8913;SDS011;4492;48.736;9.092;2022-10-15T00:34:40;0.30;;;0.30;;
8913;SDS011;4492;48.736;9.092;2022-10-15T00:37:06;3.67;;;0.50;;
8913;SDS011;4492;48.736;9.092;2022-10-15T00:39:32;0.40;;;0.40;;
8913;SDS011;4492;48.736;9.092;2022-10-15T00:41:58;0.20;;;0.20;;
8913;SDS011;4492;48.736;9.092;2022-10-15T00:47:08;1.23;;;0.50;;
8913;SDS011;4492;48.736;9.092;2022-10-15T00:49:42;1.00;;;0.57;;
8913;SDS011;4492;48.736;9.092;2022-10-15T00:52:31;1.87;;;0.50;;
8913;SDS011;4492;48.736;9.092;2022-10-15T00:57:49;0.87;;;0.30;;
8913;SDS011;4492;48.736;9.092;2022-10-15T01:00:15;2.47;;;0.50;;
8913;SDS011;4492;48.736;9.092;2022-10-15T01:02:42;1.17;;;0.40;;
8913;SDS011;4492;48.736;9.092;2022-10-15T01:05:09;0.40;;;0.40;;
8913;SDS011;4492;48.736;9.092;2022-10-15T01:07:35;1.60;;;0.33;;
8913;SDS011;4492;48.736;9.092;2022-10-15T01:10:02;2.17;;;0.47;;
8913;SDS011;4492;48.736;9.092;2022-10-15T01:15:21;0.63;;;0.30;;
8913;SDS011;4492;48.736;9.092;2022-10-15T01:18:13;0.70;;;0.60;;
8913;SDS011;4492;48.736;9.092;2022-10-15T01:20:59;0.57;;;0.50;;
8913;SDS011;4492;48.736;9.092;2022-10-15T01:29:32;0.87;;;0.40;;
8913;SDS011;4492;48.736;9.092;2022-10-15T01:32:47;0.50;;;0.33;;
8913;SDS011;4492;48.736;9.092;2022-10-15T01:35:33;0.13;;;0.13;;
8913;SDS011;4492;48.736;9.092;2022-10-15T01:38:15;0.83;;;0.30;;
8913;SDS011;4492;48.736;9.092;2022-10-15T01:40:49;1.40;;;0.40;;
8913;SDS011;4492;48.736;9.092;2022-10-15T01:43:29;0.60;;;0.40;;
8913;SDS011;4492;48.736;9.092;2022-10-15T01:45:59;0.27;;;0.27;;
8913;SDS011;4492;48.736;9.092;2022-10-15T01:48:29;1.27;;;0.30;;
8913;SDS011;4492;48.736;9.092;2022-10-15T01:50:59;0.57;;;0.30;;
8913;SDS011;4492;48.736;9.092;2022-10-15T01:53:27;2.33;;;0.40;;
8913;SDS011;4492;48.736;9.092;2022-10-15T01:55:56;0.87;;;0.40;;
8913;SDS011;4492;48.736;9.092;2022-10-15T01:58:26;3.37;;;0.83;;
8913;SDS011;4492;48.736;9.092;2022-10-15T02:00:54;0.63;;;0.53;;
8913;SDS011;4492;48.736;9.092;2022-10-15T02:03:21;1.33;;;0.50;;
8913;SDS011;4492;48.736;9.092;2022-10-15T02:05:48;1.00;;;0.50;;
8913;SDS011;4492;48.736;9.092;2022-10-15T02:08:23;0.77;;;0.40;;
8913;SDS011;4492;48.736;9.092;2022-10-15T02:10:58;0.80;;;0.47;;
8913;SDS011;4492;48.736;9.092;2022-10-15T02:16:13;0.57;;;0.30;;
8913;SDS011;4492;48.736;9.092;2022-10-15T02:19:04;0.20;;;0.20;;
8913;SDS011;4492;48.736;9.092;2022-10-15T02:22:05;0.70;;;0.60;;
8913;SDS011;4492;48.736;9.092;2022-10-15T02:24:39;2.33;;;0.50;;
8913;SDS011;4492;48.736;9.092;2022-10-15T02:27:08;0.70;;;0.70;;
8913;SDS011;4492;48.736;9.092;2022-10-15T02:29:36;1.60;;;0.70;;
8913;SDS011;4492;48.736;9.092;2022-10-15T02:32:05;0.50;;;0.50;;
8913;SDS011;4492;48.736;9.092;2022-10-15T02:34:32;0.73;;;0.60;;
8913;SDS011;4492;48.736;9.092;2022-10-15T02:37:00;1.60;;;0.60;;
8913;SDS011;4492;48.736;9.092;2022-10-15T02:39:27;5.57;;;0.80;;
8913;SDS011;4492;48.736;9.092;2022-10-15T02:41:53;1.17;;;0.60;;
8913;SDS011;4492;48.736;9.092;2022-10-15T02:44:19;1.33;;;0.40;;
8913;SDS011;4492;48.736;9.092;2022-10-15T02:46:45;3.50;;;0.50;;
8913;SDS011;4492;48.736;9.092;2022-10-15T02:49:11;2.40;;;0.60;;
8913;SDS011;4492;48.736;9.092;2022-10-15T02:51:37;1.63;;;0.43;;
8913;SDS011;4492;48.736;9.092;2022-10-15T02:54:05;1.23;;;0.43;;
8913;SDS011;4492;48.736;9.092;2022-10-15T02:56:32;0.47;;;0.37;;
8913;SDS011;4492;48.736;9.092;2022-10-15T02:58:59;1.20;;;0.30;;
8913;SDS011;4492;48.736;9.092;2022-10-15T03:01:24;0.40;;;0.30;;
8913;SDS011;4492;48.736;9.092;2022-10-15T03:03:50;0.57;;;0.30;;
8913;SDS011;4492;48.736;9.092;2022-10-15T03:06:16;1.40;;;0.23;;
8913;SDS011;4492;48.736;9.092;2022-10-15T03:08:42;0.20;;;0.20;;
8913;SDS011;4492;48.736;9.092;2022-10-15T03:11:08;1.43;;;0.40;;
8913;SDS011;4492;48.736;9.092;2022-10-15T03:13:34;3.40;;;0.30;;
8913;SDS011;4492;48.736;9.092;2022-10-15T03:16:03;4.07;;;0.40;;
8913;SDS011;4492;48.736;9.092;2022-10-15T03:18:30;1.83;;;0.20;;
8913;SDS011;4492;48.736;9.092;2022-10-15T03:20:56;2.70;;;0.33;;
8913;SDS011;4492;48.736;9.092;2022-10-15T03:23:22;0.87;;;0.20;;
8913;SDS011;4492;48.736;9.092;2022-10-15T03:25:48;1.70;;;0.97;;
8913;SDS011;4492;48.736;9.092;2022-10-15T03:28:13;2.40;;;0.47;;
8913;SDS011;4492;48.736;9.092;2022-10-15T03:30:39;0.40;;;0.27;;
8913;SDS011;4492;48.736;9.092;2022-10-15T03:33:05;0.20;;;0.20;;
8913;SDS011;4492;48.736;9.092;2022-10-15T03:35:31;1.90;;;0.30;;
8913;SDS011;4492;48.736;9.092;2022-10-15T03:37:57;0.57;;;0.20;;
8913;SDS011;4492;48.736;9.092;2022-10-15T03:40:22;0.10;;;0.10;;
8913;SDS011;4492;48.736;9.092;2022-10-15T03:42:51;0.30;;;0.30;;
8913;SDS011;4492;48.736;9.092;2022-10-15T03:45:17;0.40;;;0.30;;
8913;SDS011;4492;48.736;9.092;2022-10-15T03:47:43;0.20;;;0.20;;
8913;SDS011;4492;48.736;9.092;2022-10-15T03:50:09;0.20;;;0.17;;
8913;SDS011;4492;48.736;9.092;2022-10-15T03:52:35;0.30;;;0.30;;
8913;SDS011;4492;48.736;9.092;2022-10-15T03:55:01;0.10;;;0.10;;
8913;SDS011;4492;48.736;9.092;2022-10-15T03:57:27;0.87;;;0.27;;
8913;SDS011;4492;48.736;9.092;2022-10-15T03:59:52;0.30;;;0.30;;
8913;SDS011;4492;48.736;9.092;2022-10-15T04:02:18;0.13;;;0.13;;
8913;SDS011;4492;48.736;9.092;2022-10-15T04:04:44;1.60;;;0.10;;
8913;SDS011;4492;48.736;9.092;2022-10-15T04:07:09;0.33;;;0.30;;
8913;SDS011;4492;48.736;9.092;2022-10-15T04:09:35;0.87;;;0.20;;
8913;SDS011;4492;48.736;9.092;2022-10-15T04:12:00;1.93;;;0.20;;
8913;SDS011;4492;48.736;9.092;2022-10-15T04:14:26;0.20;;;0.10;;
8913;SDS011;4492;48.736;9.092;2022-10-15T04:16:51;3.20;;;0.60;;
8913;SDS011;4492;48.736;9.092;2022-10-15T04:19:17;0.23;;;0.20;;
8913;SDS011;4492;48.736;9.092;2022-10-15T04:21:42;0.30;;;0.10;;
8913;SDS011;4492;48.736;9.092;2022-10-15T04:24:08;0.10;;;0.10;;
8913;SDS011;4492;48.736;9.092;2022-10-15T04:26:33;0.50;;;0.10;;
8913;SDS011;4492;48.736;9.092;2022-10-15T04:29:00;0.93;;;0.10;;
8913;SDS011;4492;48.736;9.092;2022-10-15T04:31:25;0.43;;;0.20;;
8913;SDS011;4492;48.736;9.092;2022-10-15T04:33:51;1.70;;;0.20;;
8913;SDS011;4492;48.736;9.092;2022-10-15T04:36:16;0.73;;;0.10;;
8913;SDS011;4492;48.736;9.092;2022-10-15T04:38:42;1.60;;;0.13;;
8913;SDS011;4492;48.736;9.092;2022-10-15T04:41:09;0.10;;;0.10;;
8913;SDS011;4492;48.736;9.092;2022-10-15T04:43:36;1.80;;;0.20;;
8913;SDS011;4492;48.736;9.092;2022-10-15T04:46:04;1.73;;;0.20;;
8913;SDS011;4492;48.736;9.092;2022-10-15T04:48:31;0.20;;;0.20;;
8913;SDS011;4492;48.736;9.092;2022-10-15T04:51:03;0.20;;;0.20;;
8913;SDS011;4492;48.736;9.092;2022-10-15T04:53:32;0.70;;;0.30;;
8913;SDS011;4492;48.736;9.092;2022-10-15T04:55:59;1.53;;;0.10;;
8913;SDS011;4492;48.736;9.092;2022-10-15T04:58:29;0.27;;;0.13;;
8913;SDS011;4492;48.736;9.092;2022-10-15T05:01:03;0.40;;;0.20;;
8913;SDS011;4492;48.736;9.092;2022-10-15T05:03:30;0.10;;;0.10;;
8913;SDS011;4492;48.736;9.092;2022-10-15T05:06:00;0.80;;;0.20;;
8913;SDS011;4492;48.736;9.092;2022-10-15T05:08:31;1.00;;;0.20;;
8913;SDS011;4492;48.736;9.092;2022-10-15T05:11:02;0.20;;;0.20;;
8913;SDS011;4492;48.736;9.092;2022-10-15T05:13:29;0.27;;;0.27;;
8913;SDS011;4492;48.736;9.092;2022-10-15T05:15:55;0.20;;;0.20;;
8913;SDS011;4492;48.736;9.092;2022-10-15T05:18:21;1.10;;;0.30;;
8913;SDS011;4492;48.736;9.092;2022-10-15T05:20:47;3.30;;;0.30;;
8913;SDS011;4492;48.736;9.092;2022-10-15T05:23:13;0.20;;;0.20;;
8913;SDS011;4492;48.736;9.092;2022-10-15T05:25:39;0.10;;;0.10;;
8913;SDS011;4492;48.736;9.092;2022-10-15T05:28:04;0.30;;;0.30;;
8913;SDS011;4492;48.736;9.092;2022-10-15T05:30:30;0.43;;;0.20;;
8913;SDS011;4492;48.736;9.092;2022-10-15T05:32:57;2.10;;;0.37;;
8913;SDS011;4492;48.736;9.092;2022-10-15T05:35:23;1.13;;;0.30;;
8913;SDS011;4492;48.736;9.092;2022-10-15T05:37:48;0.93;;;0.40;;
8913;SDS011;4492;48.736;9.092;2022-10-15T05:40:14;0.27;;;0.27;;
8913;SDS011;4492;48.736;9.092;2022-10-15T05:42:40;1.17;;;0.30;;
8913;SDS011;4492;48.736;9.092;2022-10-15T05:45:05;0.20;;;0.20;;
8913;SDS011;4492;48.736;9.092;2022-10-15T05:47:31;0.90;;;0.20;;
8913;SDS011;4492;48.736;9.092;2022-10-15T05:49:57;0.80;;;0.23;;
8913;SDS011;4492;48.736;9.092;2022-10-15T05:52:22;1.43;;;0.40;;
8913;SDS011;4492;48.736;9.092;2022-10-15T05:54:48;1.70;;;0.30;;
8913;SDS011;4492;48.736;9.092;2022-10-15T05:57:13;0.30;;;0.30;;
8913;SDS011;4492;48.736;9.092;2022-10-15T05:59:39;1.63;;;0.20;;
8913;SDS011;4492;48.736;9.092;2022-10-15T06:02:05;0.47;;;0.33;;
8913;SDS011;4492;48.736;9.092;2022-10-15T06:04:30;1.80;;;0.40;;
8913;SDS011;4492;48.736;9.092;2022-10-15T06:06:56;0.30;;;0.30;;
8913;SDS011;4492;48.736;9.092;2022-10-15T06:09:22;1.20;;;1.10;;
8913;SDS011;4492;48.736;9.092;2022-10-15T06:11:48;1.17;;;0.50;;
8913;SDS011;4492;48.736;9.092;2022-10-15T06:14:14;0.33;;;0.33;;
8913;SDS011;4492;48.736;9.092;2022-10-15T06:16:39;1.27;;;0.50;;
8913;SDS011;4492;48.736;9.092;2022-10-15T06:19:06;1.83;;;0.40;;
8913;SDS011;4492;48.736;9.092;2022-10-15T06:21:31;1.13;;;0.37;;
8913;SDS011;4492;48.736;9.092;2022-10-15T06:23:57;0.57;;;0.50;;
8913;SDS011;4492;48.736;9.092;2022-10-15T06:26:22;2.47;;;0.50;;
8913;SDS011;4492;48.736;9.092;2022-10-15T06:28:48;0.77;;;0.50;;
8913;SDS011;4492;48.736;9.092;2022-10-15T06:31:13;1.40;;;0.50;;
8913;SDS011;4492;48.736;9.092;2022-10-15T06:33:39;0.50;;;0.50;;
8913;SDS011;4492;48.736;9.092;2022-10-15T06:36:06;1.07;;;0.50;;
8913;SDS011;4492;48.736;9.092;2022-10-15T06:38:32;3.70;;;0.47;;
8913;SDS011;4492;48.736;9.092;2022-10-15T06:40:59;0.80;;;0.40;;
8913;SDS011;4492;48.736;9.092;2022-10-15T06:43:27;0.37;;;0.37;;
8913;SDS011;4492;48.736;9.092;2022-10-15T06:45:53;3.60;;;0.70;;
8913;SDS011;4492;48.736;9.092;2022-10-15T06:48:18;1.13;;;0.60;;
8913;SDS011;4492;48.736;9.092;2022-10-15T06:50:44;5.47;;;1.00;;
8913;SDS011;4492;48.736;9.092;2022-10-15T06:53:09;1.23;;;0.87;;
8913;SDS011;4492;48.736;9.092;2022-10-15T06:55:35;2.53;;;0.57;;
8913;SDS011;4492;48.736;9.092;2022-10-15T06:58:02;2.80;;;0.67;;
8913;SDS011;4492;48.736;9.092;2022-10-15T07:00:27;1.60;;;1.23;;
8913;SDS011;4492;48.736;9.092;2022-10-15T07:02:53;1.07;;;0.57;;
8913;SDS011;4492;48.736;9.092;2022-10-15T07:05:19;3.97;;;0.83;;
8913;SDS011;4492;48.736;9.092;2022-10-15T07:07:55;1.50;;;0.60;;
8913;SDS011;4492;48.736;9.092;2022-10-15T07:10:21;2.20;;;0.60;;
8913;SDS011;4492;48.736;9.092;2022-10-15T07:12:48;0.70;;;0.57;;
8913;SDS011;4492;48.736;9.092;2022-10-15T07:15:13;1.90;;;0.70;;
8913;SDS011;4492;48.736;9.092;2022-10-15T07:17:44;1.50;;;0.53;;
8913;SDS011;4492;48.736;9.092;2022-10-15T07:20:26;3.23;;;0.50;;
8913;SDS011;4492;48.736;9.092;2022-10-15T07:22:59;1.53;;;0.80;;
8913;SDS011;4492;48.736;9.092;2022-10-15T07:25:25;2.20;;;0.50;;
8913;SDS011;4492;48.736;9.092;2022-10-15T07:27:52;2.43;;;0.60;;
8913;SDS011;4492;48.736;9.092;2022-10-15T07:30:19;1.90;;;0.40;;
8913;SDS011;4492;48.736;9.092;2022-10-15T07:32:46;1.27;;;0.50;;
8913;SDS011;4492;48.736;9.092;2022-10-15T07:35:12;2.07;;;0.70;;
8913;SDS011;4492;48.736;9.092;2022-10-15T07:37:38;0.50;;;0.40;;
8913;SDS011;4492;48.736;9.092;2022-10-15T07:40:04;0.87;;;0.60;;
8913;SDS011;4492;48.736;9.092;2022-10-15T07:42:30;1.43;;;0.70;;
8913;SDS011;4492;48.736;9.092;2022-10-15T07:44:55;3.70;;;0.60;;
8913;SDS011;4492;48.736;9.092;2022-10-15T07:47:21;0.73;;;0.40;;
8913;SDS011;4492;48.736;9.092;2022-10-15T07:49:47;1.03;;;0.33;;
8913;SDS011;4492;48.736;9.092;2022-10-15T07:52:12;0.40;;;0.40;;
8913;SDS011;4492;48.736;9.092;2022-10-15T07:54:38;3.70;;;0.87;;
8913;SDS011;4492;48.736;9.092;2022-10-15T07:57:04;0.77;;;0.40;;
8913;SDS011;4492;48.736;9.092;2022-10-15T07:59:31;0.57;;;0.47;;
8913;SDS011;4492;48.736;9.092;2022-10-15T08:01:57;3.30;;;0.73;;
8913;SDS011;4492;48.736;9.092;2022-10-15T08:04:22;2.00;;;1.27;;
8913;SDS011;4492;48.736;9.092;2022-10-15T08:06:48;2.40;;;0.70;;
8913;SDS011;4492;48.736;9.092;2022-10-15T08:09:13;0.70;;;0.33;;
8913;SDS011;4492;48.736;9.092;2022-10-15T08:11:39;1.80;;;0.73;;
8913;SDS011;4492;48.736;9.092;2022-10-15T08:14:05;1.57;;;0.50;;
8913;SDS011;4492;48.736;9.092;2022-10-15T08:16:30;2.30;;;0.50;;
8913;SDS011;4492;48.736;9.092;2022-10-15T08:18:56;0.40;;;0.30;;
8913;SDS011;4492;48.736;9.092;2022-10-15T08:21:23;2.07;;;1.70;;
8913;SDS011;4492;48.736;9.092;2022-10-15T08:23:49;1.90;;;0.27;;
8913;SDS011;4492;48.736;9.092;2022-10-15T08:26:16;2.07;;;0.50;;
8913;SDS011;4492;48.736;9.092;2022-10-15T08:28:41;2.20;;;0.80;;
8913;SDS011;4492;48.736;9.092;2022-10-15T08:31:07;0.63;;;0.33;;
8913;SDS011;4492;48.736;9.092;2022-10-15T08:33:33;1.23;;;0.30;;
8913;SDS011;4492;48.736;9.092;2022-10-15T08:35:59;0.60;;;0.30;;
8913;SDS011;4492;48.736;9.092;2022-10-15T08:38:25;0.23;;;0.23;;
8913;SDS011;4492;48.736;9.092;2022-10-15T08:40:51;0.20;;;0.20;;
8913;SDS011;4492;48.736;9.092;2022-10-15T08:43:28;2.30;;;1.13;;
8913;SDS011;4492;48.736;9.092;2022-10-15T08:46:05;0.20;;;0.20;;
8913;SDS011;4492;48.736;9.092;2022-10-15T08:48:36;0.20;;;0.20;;
8913;SDS011;4492;48.736;9.092;2022-10-15T08:51:10;0.40;;;0.40;;
8913;SDS011;4492;48.736;9.092;2022-10-15T08:53:40;1.50;;;0.20;;
8913;SDS011;4492;48.736;9.092;2022-10-15T08:56:16;0.90;;;0.30;;
8913;SDS011;4492;48.736;9.092;2022-10-15T09:02:12;3.03;;;0.30;;
8913;SDS011;4492;48.736;9.092;2022-10-15T09:07:19;1.43;;;0.30;;
8913;SDS011;4492;48.736;9.092;2022-10-15T09:09:49;0.50;;;0.30;;
8913;SDS011;4492;48.736;9.092;2022-10-15T09:12:20;2.57;;;0.20;;
8913;SDS011;4492;48.736;9.092;2022-10-15T09:15:14;0.30;;;0.30;;
8913;SDS011;4492;48.736;9.092;2022-10-15T09:17:44;2.53;;;0.30;;
8913;SDS011;4492;48.736;9.092;2022-10-15T09:20:31;0.40;;;0.40;;
8913;SDS011;4492;48.736;9.092;2022-10-15T09:22:58;0.20;;;0.20;;
8913;SDS011;4492;48.736;9.092;2022-10-15T09:25:24;0.30;;;0.30;;
8913;SDS011;4492;48.736;9.092;2022-10-15T09:27:57;0.40;;;0.40;;
8913;SDS011;4492;48.736;9.092;2022-10-15T09:33:04;1.13;;;1.03;;
8913;SDS011;4492;48.736;9.092;2022-10-15T09:38:59;0.93;;;0.30;;
8913;SDS011;4492;48.736;9.092;2022-10-15T09:43:56;1.10;;;0.27;;
8913;SDS011;4492;48.736;9.092;2022-10-15T09:46:23;1.03;;;0.30;;
8913;SDS011;4492;48.736;9.092;2022-10-15T09:52:33;2.00;;;0.40;;
8913;SDS011;4492;48.736;9.092;2022-10-15T09:57:29;0.30;;;0.30;;
8913;SDS011;4492;48.736;9.092;2022-10-15T09:59:58;2.47;;;0.27;;
8913;SDS011;4492;48.736;9.092;2022-10-15T10:02:25;0.37;;;0.37;;
8913;SDS011;4492;48.736;9.092;2022-10-15T10:04:51;2.63;;;0.33;;
8913;SDS011;4492;48.736;9.092;2022-10-15T10:07:36;1.90;;;0.20;;
8913;SDS011;4492;48.736;9.092;2022-10-15T10:12:48;0.67;;;0.50;;
8913;SDS011;4492;48.736;9.092;2022-10-15T10:18:19;0.40;;;0.40;;
8913;SDS011;4492;48.736;9.092;2022-10-15T10:23:45;0.60;;;0.50;;
8913;SDS011;4492;48.736;9.092;2022-10-15T10:26:09;1.50;;;0.50;;
8913;SDS011;4492;48.736;9.092;2022-10-15T10:28:54;2.63;;;0.60;;
8913;SDS011;4492;48.736;9.092;2022-10-15T10:31:27;3.93;;;0.53;;
8913;SDS011;4492;48.736;9.092;2022-10-15T10:33:56;0.50;;;0.50;;
8913;SDS011;4492;48.736;9.092;2022-10-15T10:36:31;3.97;;;0.50;;
8913;SDS011;4492;48.736;9.092;2022-10-15T10:49:31;2.03;;;0.53;;
8913;SDS011;4492;48.736;9.092;2022-10-15T10:51:58;0.80;;;0.80;;
8913;SDS011;4492;48.736;9.092;2022-10-15T10:54:24;1.03;;;0.53;;
8913;SDS011;4492;48.736;9.092;2022-10-15T10:56:52;2.67;;;0.73;;
8913;SDS011;4492;48.736;9.092;2022-10-15T10:59:20;1.97;;;0.90;;
8913;SDS011;4492;48.736;9.092;2022-10-15T11:01:50;2.67;;;0.70;;
8913;SDS011;4492;48.736;9.092;2022-10-15T11:04:18;5.90;;;0.73;;
8913;SDS011;4492;48.736;9.092;2022-10-15T11:12:06;2.00;;;0.70;;
8913;SDS011;4492;48.736;9.092;2022-10-15T11:25:45;0.47;;;0.40;;
8913;SDS011;4492;48.736;9.092;2022-10-15T11:28:23;2.30;;;0.60;;
8913;SDS011;4492;48.736;9.092;2022-10-15T11:31:26;3.60;;;0.60;;
8913;SDS011;4492;48.736;9.092;2022-10-15T11:40:12;3.57;;;0.60;;
8913;SDS011;4492;48.736;9.092;2022-10-15T11:45:26;0.47;;;0.43;;
8913;SDS011;4492;48.736;9.092;2022-10-15T11:51:02;0.63;;;0.40;;
8913;SDS011;4492;48.736;9.092;2022-10-15T11:56:25;1.70;;;0.60;;
8913;SDS011;4492;48.736;9.092;2022-10-15T11:58:56;1.03;;;0.60;;
8913;SDS011;4492;48.736;9.092;2022-10-15T12:01:37;0.50;;;0.40;;
8913;SDS011;4492;48.736;9.092;2022-10-15T12:04:12;2.20;;;0.67;;
8913;SDS011;4492;48.736;9.092;2022-10-15T12:06:43;3.07;;;0.63;;
8913;SDS011;4492;48.736;9.092;2022-10-15T12:09:15;1.77;;;0.60;;
8913;SDS011;4492;48.736;9.092;2022-10-15T12:11:54;2.20;;;0.63;;
8913;SDS011;4492;48.736;9.092;2022-10-15T12:14:34;1.00;;;0.70;;
8913;SDS011;4492;48.736;9.092;2022-10-15T12:20:10;1.50;;;0.60;;
8913;SDS011;4492;48.736;9.092;2022-10-15T12:30:30;1.90;;;0.40;;
8913;SDS011;4492;48.736;9.092;2022-10-15T12:32:58;1.13;;;0.50;;
8913;SDS011;4492;48.736;9.092;2022-10-15T12:35:37;2.00;;;0.53;;
8913;SDS011;4492;48.736;9.092;2022-10-15T12:38:11;1.37;;;0.50;;
8913;SDS011;4492;48.736;9.092;2022-10-15T12:40:45;1.20;;;0.70;;
8913;SDS011;4492;48.736;9.092;2022-10-15T12:43:13;2.07;;;0.63;;
8913;SDS011;4492;48.736;9.092;2022-10-15T12:45:48;0.40;;;0.40;;
8913;SDS011;4492;48.736;9.092;2022-10-15T12:48:29;2.50;;;0.77;;
8913;SDS011;4492;48.736;9.092;2022-10-15T12:53:59;0.60;;;0.50;;
8913;SDS011;4492;48.736;9.092;2022-10-15T12:56:39;2.17;;;0.43;;
8913;SDS011;4492;48.736;9.092;2022-10-15T12:59:27;1.50;;;0.57;;
8913;SDS011;4492;48.736;9.092;2022-10-15T13:02:57;2.43;;;0.50;;
8913;SDS011;4492;48.736;9.092;2022-10-15T13:05:23;0.60;;;0.60;;
8913;SDS011;4492;48.736;9.092;2022-10-15T13:07:54;0.57;;;0.50;;
8913;SDS011;4492;48.736;9.092;2022-10-15T13:10:28;1.87;;;0.83;;
8913;SDS011;4492;48.736;9.092;2022-10-15T13:13:00;1.23;;;0.70;;
8913;SDS011;4492;48.736;9.092;2022-10-15T13:15:29;1.50;;;0.87;;
8913;SDS011;4492;48.736;9.092;2022-10-15T13:17:58;0.70;;;0.70;;
8913;SDS011;4492;48.736;9.092;2022-10-15T13:20:32;0.60;;;0.57;;
8913;SDS011;4492;48.736;9.092;2022-10-15T13:23:07;1.30;;;0.70;;
8913;SDS011;4492;48.736;9.092;2022-10-15T13:25:33;1.73;;;0.80;;
8913;SDS011;4492;48.736;9.092;2022-10-15T13:27:58;5.17;;;1.10;;
8913;SDS011;4492;48.736;9.092;2022-10-15T13:30:24;1.17;;;0.70;;
8913;SDS011;4492;48.736;9.092;2022-10-15T13:35:17;2.77;;;0.87;;
8913;SDS011;4492;48.736;9.092;2022-10-15T13:37:46;1.07;;;0.60;;
8913;SDS011;4492;48.736;9.092;2022-10-15T13:40:23;2.20;;;0.80;;
8913;SDS011;4492;48.736;9.092;2022-10-15T13:43:00;1.47;;;1.00;;
8913;SDS011;4492;48.736;9.092;2022-10-15T13:45:31;1.40;;;1.00;;
8913;SDS011;4492;48.736;9.092;2022-10-15T13:47:57;1.67;;;1.33;;
8913;SDS011;4492;48.736;9.092;2022-10-15T13:55:21;4.30;;;0.70;;
8913;SDS011;4492;48.736;9.092;2022-10-15T13:57:55;1.00;;;0.90;;
8913;SDS011;4492;48.736;9.092;2022-10-15T14:00:27;1.43;;;0.93;;
8913;SDS011;4492;48.736;9.092;2022-10-15T14:05:45;2.63;;;0.90;;
8913;SDS011;4492;48.736;9.092;2022-10-15T14:08:22;1.53;;;0.93;;
8913;SDS011;4492;48.736;9.092;2022-10-15T14:10:52;5.43;;;1.20;;
8913;SDS011;4492;48.736;9.092;2022-10-15T14:13:21;2.97;;;1.00;;
8913;SDS011;4492;48.736;9.092;2022-10-15T14:15:51;4.30;;;1.50;;
8913;SDS011;4492;48.736;9.092;2022-10-15T14:18:36;2.03;;;1.17;;
8913;SDS011;4492;48.736;9.092;2022-10-15T14:21:14;2.77;;;1.00;;
8913;SDS011;4492;48.736;9.092;2022-10-15T14:23:44;4.87;;;0.90;;
8913;SDS011;4492;48.736;9.092;2022-10-15T14:26:11;1.70;;;0.60;;
8913;SDS011;4492;48.736;9.092;2022-10-15T14:28:37;0.90;;;0.90;;
8913;SDS011;4492;48.736;9.092;2022-10-15T14:31:04;1.57;;;0.70;;
8913;SDS011;4492;48.736;9.092;2022-10-15T14:36:06;2.80;;;1.17;;
8913;SDS011;4492;48.736;9.092;2022-10-15T14:38:32;1.73;;;0.80;;
8913;SDS011;4492;48.736;9.092;2022-10-15T14:40:58;1.50;;;0.67;;
8913;SDS011;4492;48.736;9.092;2022-10-15T14:43:32;2.60;;;0.80;;
8913;SDS011;4492;48.736;9.092;2022-10-15T14:46:02;2.87;;;0.80;;
8913;SDS011;4492;48.736;9.092;2022-10-15T14:48:31;1.23;;;0.63;;
8913;SDS011;4492;48.736;9.092;2022-10-15T14:51:00;2.37;;;0.97;;
8913;SDS011;4492;48.736;9.092;2022-10-15T14:53:30;3.37;;;0.67;;
8913;SDS011;4492;48.736;9.092;2022-10-15T14:56:02;1.73;;;0.80;;
8913;SDS011;4492;48.736;9.092;2022-10-15T14:58:38;1.00;;;0.70;;
8913;SDS011;4492;48.736;9.092;2022-10-15T15:01:04;4.73;;;0.80;;
8913;SDS011;4492;48.736;9.092;2022-10-15T15:03:39;1.20;;;0.70;;
8913;SDS011;4492;48.736;9.092;2022-10-15T15:06:06;2.20;;;1.20;;
8913;SDS011;4492;48.736;9.092;2022-10-15T15:08:33;3.93;;;0.90;;
8913;SDS011;4492;48.736;9.092;2022-10-15T15:10:59;0.73;;;0.60;;
8913;SDS011;4492;48.736;9.092;2022-10-15T15:13:29;0.87;;;0.77;;
8913;SDS011;4492;48.736;9.092;2022-10-15T15:15:56;1.10;;;0.67;;
8913;SDS011;4492;48.736;9.092;2022-10-15T15:18:22;0.70;;;0.63;;
8913;SDS011;4492;48.736;9.092;2022-10-15T15:20:48;1.10;;;0.50;;
8913;SDS011;4492;48.736;9.092;2022-10-15T15:25:45;1.17;;;0.50;;
8913;SDS011;4492;48.736;9.092;2022-10-15T15:28:12;1.67;;;0.60;;
8913;SDS011;4492;48.736;9.092;2022-10-15T15:30:41;1.03;;;0.73;;
8913;SDS011;4492;48.736;9.092;2022-10-15T15:33:11;1.60;;;0.93;;
8913;SDS011;4492;48.736;9.092;2022-10-15T15:35:43;1.53;;;0.80;;
8913;SDS011;4492;48.736;9.092;2022-10-15T15:38:15;1.40;;;0.60;;
8913;SDS011;4492;48.736;9.092;2022-10-15T15:40:58;4.23;;;0.97;;
8913;SDS011;4492;48.736;9.092;2022-10-15T15:43:34;2.70;;;0.80;;
8913;SDS011;4492;48.736;9.092;2022-10-15T15:46:00;2.97;;;0.80;;
8913;SDS011;4492;48.736;9.092;2022-10-15T15:48:26;2.97;;;0.80;;
8913;SDS011;4492;48.736;9.092;2022-10-15T15:51:00;2.20;;;1.13;;
8913;SDS011;4492;48.736;9.092;2022-10-15T15:53:28;3.57;;;0.80;;
8913;SDS011;4492;48.736;9.092;2022-10-15T15:55:54;2.00;;;0.70;;
8913;SDS011;4492;48.736;9.092;2022-10-15T15:58:19;0.97;;;0.53;;
8913;SDS011;4492;48.736;9.092;2022-10-15T16:00:45;2.40;;;0.77;;
8913;SDS011;4492;48.736;9.092;2022-10-15T16:03:11;2.73;;;1.10;;
8913;SDS011;4492;48.736;9.092;2022-10-15T16:05:38;2.50;;;0.90;;
8913;SDS011;4492;48.736;9.092;2022-10-15T16:08:05;1.60;;;1.03;;
8913;SDS011;4492;48.736;9.092;2022-10-15T16:10:31;0.83;;;0.83;;
8913;SDS011;4492;48.736;9.092;2022-10-15T16:12:57;1.87;;;0.83;;
8913;SDS011;4492;48.736;9.092;2022-10-15T16:15:23;0.73;;;0.73;;
8913;SDS011;4492;48.736;9.092;2022-10-15T16:17:48;2.20;;;0.40;;
8913;SDS011;4492;48.736;9.092;2022-10-15T16:20:14;0.60;;;0.60;;
8913;SDS011;4492;48.736;9.092;2022-10-15T16:22:39;1.10;;;0.60;;
8913;SDS011;4492;48.736;9.092;2022-10-15T16:25:06;0.83;;;0.63;;
8913;SDS011;4492;48.736;9.092;2022-10-15T16:27:32;0.63;;;0.60;;
8913;SDS011;4492;48.736;9.092;2022-10-15T16:29:58;0.60;;;0.60;;
8913;SDS011;4492;48.736;9.092;2022-10-15T16:32:25;1.20;;;0.60;;
8913;SDS011;4492;48.736;9.092;2022-10-15T16:34:51;1.10;;;0.93;;
8913;SDS011;4492;48.736;9.092;2022-10-15T16:37:16;0.93;;;0.70;;
8913;SDS011;4492;48.736;9.092;2022-10-15T16:39:42;1.20;;;1.10;;
8913;SDS011;4492;48.736;9.092;2022-10-15T16:42:07;0.57;;;0.53;;
8913;SDS011;4492;48.736;9.092;2022-10-15T16:44:33;1.27;;;0.77;;
8913;SDS011;4492;48.736;9.092;2022-10-15T16:46:59;0.53;;;0.53;;
8913;SDS011;4492;48.736;9.092;2022-10-15T16:49:24;0.60;;;0.60;;
8913;SDS011;4492;48.736;9.092;2022-10-15T16:51:50;1.80;;;0.63;;
8913;SDS011;4492;48.736;9.092;2022-10-15T16:54:16;4.23;;;1.00;;
8913;SDS011;4492;48.736;9.092;2022-10-15T16:56:42;3.90;;;0.90;;
8913;SDS011;4492;48.736;9.092;2022-10-15T16:59:08;2.70;;;0.70;;
8913;SDS011;4492;48.736;9.092;2022-10-15T17:01:33;1.20;;;0.70;;
8913;SDS011;4492;48.736;9.092;2022-10-15T17:03:59;1.63;;;0.90;;
8913;SDS011;4492;48.736;9.092;2022-10-15T17:06:27;1.83;;;0.90;;
8913;SDS011;4492;48.736;9.092;2022-10-15T17:08:55;1.10;;;1.00;;
8913;SDS011;4492;48.736;9.092;2022-10-15T17:11:22;4.00;;;0.80;;
8913;SDS011;4492;48.736;9.092;2022-10-15T17:13:50;2.23;;;1.10;;
8913;SDS011;4492;48.736;9.092;2022-10-15T17:16:25;1.97;;;1.10;;
8913;SDS011;4492;48.736;9.092;2022-10-15T17:18:52;1.00;;;0.90;;
8913;SDS011;4492;48.736;9.092;2022-10-15T17:21:20;5.07;;;0.97;;
8913;SDS011;4492;48.736;9.092;2022-10-15T17:23:52;2.37;;;0.90;;